createdAt,value
2023-03-28T00:01:07.760Z,75.86
2023-03-28T00:03:41.082Z,75.99
2023-03-28T00:06:12.663Z,76.04
2023-03-28T00:08:41.669Z,76.19
2023-03-28T00:11:13.001Z,76.36
2023-03-28T00:13:40.973Z,76.00
2023-03-28T00:16:13.799Z,75.82
2023-03-28T00:18:43.887Z,75.82
2023-03-28T00:21:25.925Z,75.59
2023-03-28T00:23:55.939Z,75.40
2023-03-28T00:26:28.099Z,75.67
2023-03-28T00:28:57.808Z,75.47
2023-03-28T00:31:27.720Z,75.42
2023-03-28T00:33:55.779Z,75.25
2023-03-28T00:36:27.738Z,74.90
2023-03-28T00:38:55.681Z,74.87
2023-03-28T00:41:25.358Z,75.14
2023-03-28T00:43:56.275Z,76.16
2023-03-28T00:46:42.771Z,76.83
2023-03-28T00:49:23.897Z,76.49
2023-03-28T00:51:58.171Z,76.96
2023-03-28T00:54:30.900Z,77.22
2023-03-28T00:57:02.581Z,78.65
2023-03-28T00:59:34.018Z,78.23
2023-03-28T01:02:02.736Z,78.81
2023-03-28T01:04:47.907Z,79.80
2023-03-28T01:07:17.689Z,79.49
2023-03-28T01:09:47.054Z,79.60
2023-03-28T01:12:18.087Z,79.63
2023-03-28T01:14:46.899Z,80.29
2023-03-28T01:17:15.005Z,80.17
2023-03-28T01:20:16.130Z,80.50
2023-03-28T01:22:57.430Z,81.53
2023-03-28T01:25:57.396Z,81.81
2023-03-28T01:29:15.705Z,82.27
2023-03-28T01:32:11.327Z,82.17
2023-03-28T01:34:57.945Z,82.57
2023-03-28T01:37:38.947Z,81.98
2023-03-28T01:40:24.747Z,82.12
2023-03-28T01:43:01.909Z,82.12
2023-03-28T01:45:41.857Z,81.84
2023-03-28T01:48:18.837Z,81.37
2023-03-28T01:50:57.703Z,81.37
2023-03-28T01:53:33.778Z,81.50
2023-03-28T01:56:09.312Z,81.02
2023-03-28T01:58:43.396Z,80.91
2023-03-28T02:01:38.127Z,80.67
2023-03-28T02:04:20.608Z,80.69
2023-03-28T02:06:52.314Z,81.11
2023-03-28T02:09:24.827Z,80.81
2023-03-28T02:12:00.443Z,80.33
2023-03-28T02:14:35.130Z,80.63
2023-03-28T02:17:10.557Z,81.03
2023-03-28T02:19:39.978Z,80.87
2023-03-28T02:22:18.926Z,80.20
2023-03-28T02:24:51.878Z,80.88
2023-03-28T02:27:24.035Z,80.34
2023-03-28T02:29:52.689Z,80.36
2023-03-28T02:32:23.121Z,80.32
2023-03-28T02:34:55.211Z,80.30
2023-03-28T02:37:41.278Z,80.93
2023-03-28T02:40:28.569Z,80.66
2023-03-28T02:43:18.202Z,80.85
2023-03-28T02:46:07.658Z,81.33
2023-03-28T02:48:56.672Z,82.28
2023-03-28T02:51:35.999Z,81.84
2023-03-28T02:54:25.451Z,82.49
2023-03-28T02:57:14.355Z,81.75
2023-03-28T02:59:44.332Z,81.58
2023-03-28T03:02:18.529Z,82.18
2023-03-28T03:04:46.872Z,82.28
2023-03-28T03:07:15.246Z,82.74
2023-03-28T03:09:45.808Z,82.22
2023-03-28T03:12:14.654Z,82.63
2023-03-28T03:14:43.320Z,82.51
2023-03-28T03:17:11.477Z,82.54
2023-03-28T03:19:39.982Z,82.27
2023-03-28T03:22:08.751Z,82.22
2023-03-28T03:24:37.705Z,82.43
2023-03-28T03:27:05.723Z,82.87
2023-03-28T03:29:38.780Z,82.27
2023-03-28T03:32:07.923Z,82.59
2023-03-28T03:34:38.097Z,82.31
2023-03-28T03:37:06.222Z,82.84
2023-03-28T03:39:34.113Z,83.01
2023-03-28T03:42:02.004Z,83.07
2023-03-28T03:44:30.187Z,82.83
2023-03-28T03:46:58.757Z,82.54
2023-03-28T03:49:26.691Z,82.52
2023-03-28T03:51:54.578Z,81.58
2023-03-28T03:54:22.530Z,81.98
2023-03-28T03:56:50.431Z,81.87
2023-03-28T03:59:18.755Z,81.16
2023-03-28T04:01:46.692Z,81.81
2023-03-28T04:04:15.429Z,81.23
2023-03-28T04:06:43.333Z,81.23
2023-03-28T04:09:11.216Z,81.13
2023-03-28T04:11:39.213Z,80.74
2023-03-28T04:14:07.148Z,80.97
2023-03-28T04:16:40.277Z,80.46
2023-03-28T04:19:11.948Z,81.00
2023-03-28T04:21:43.860Z,81.09
2023-03-28T04:24:16.885Z,80.36
2023-03-28T04:26:47.162Z,80.76
2023-03-28T04:29:15.066Z,80.66
2023-03-28T04:31:51.085Z,81.18
2023-03-28T04:34:21.340Z,81.28
2023-03-28T04:36:49.234Z,81.24
2023-03-28T04:39:17.120Z,80.58
2023-03-28T04:41:47.373Z,80.22
2023-03-28T04:44:15.438Z,80.43
2023-03-28T04:46:43.500Z,80.32
2023-03-28T04:49:12.069Z,80.87
2023-03-28T04:51:39.954Z,81.26
2023-03-28T04:54:07.962Z,81.14
2023-03-28T04:56:36.223Z,81.13
2023-03-28T04:59:04.706Z,81.05
2023-03-28T05:01:32.701Z,80.85
2023-03-28T05:04:00.654Z,80.71
2023-03-28T05:06:28.588Z,80.75
2023-03-28T05:08:57.381Z,80.85
2023-03-28T05:11:25.380Z,80.70
2023-03-28T05:13:53.342Z,80.75
2023-03-28T05:16:21.338Z,80.95
2023-03-28T05:18:49.609Z,81.16
2023-03-28T05:21:17.721Z,81.53
2023-03-28T05:23:51.254Z,81.38
2023-03-28T05:26:20.367Z,81.38
2023-03-28T05:28:48.586Z,81.18
2023-03-28T05:31:18.681Z,81.15
2023-03-28T05:33:46.821Z,80.90
2023-03-28T05:36:14.874Z,81.00
2023-03-28T05:38:42.843Z,81.19
2023-03-28T05:41:11.306Z,81.03
2023-03-28T05:43:39.268Z,81.04
2023-03-28T05:46:07.809Z,81.02
2023-03-28T05:48:35.779Z,80.88
2023-03-28T05:51:03.724Z,80.80
2023-03-28T05:53:31.737Z,80.84
2023-03-28T05:55:59.703Z,80.50
2023-03-28T05:58:27.683Z,80.62
2023-03-28T06:00:58.143Z,80.70
2023-03-28T06:03:27.244Z,80.66
2023-03-28T06:05:55.369Z,80.45
2023-03-28T06:08:23.397Z,79.96
2023-03-28T06:10:51.284Z,79.99
2023-03-28T06:13:19.227Z,80.02
2023-03-28T06:15:47.169Z,79.99
2023-03-28T06:18:15.129Z,80.09
2023-03-28T06:20:43.147Z,80.23
2023-03-28T06:23:11.091Z,80.32
2023-03-28T06:25:39.047Z,80.23
2023-03-28T06:28:06.997Z,80.10
2023-03-28T06:30:35.066Z,80.67
2023-03-28T06:33:03.050Z,80.48
2023-03-28T06:35:31.163Z,81.36
2023-03-28T06:37:59.876Z,81.16
2023-03-28T06:40:27.967Z,81.12
2023-03-28T06:42:56.019Z,80.87
2023-03-28T06:45:24.008Z,80.49
2023-03-28T06:47:53.101Z,80.79
2023-03-28T06:50:21.462Z,81.00
2023-03-28T06:52:49.345Z,80.63
2023-03-28T06:55:17.384Z,79.79
2023-03-28T06:57:45.359Z,80.29
2023-03-28T07:00:14.012Z,79.95
2023-03-28T07:02:42.111Z,79.35
2023-03-28T07:05:10.518Z,79.59
2023-03-28T07:07:38.450Z,79.47
2023-03-28T07:10:07.324Z,79.04
2023-03-28T07:12:35.370Z,79.08
2023-03-28T07:15:03.361Z,79.00
2023-03-28T07:17:31.287Z,79.04
2023-03-28T07:19:59.159Z,79.05
2023-03-28T07:22:27.203Z,78.84
2023-03-28T07:24:55.600Z,78.80
2023-03-28T07:27:25.048Z,78.55
2023-03-28T07:29:53.241Z,78.41
2023-03-28T07:32:22.097Z,77.64
2023-03-28T07:34:50.064Z,77.53
2023-03-28T07:37:18.215Z,77.25
2023-03-28T07:39:46.253Z,76.92
2023-03-28T07:42:15.351Z,77.42
2023-03-28T07:44:43.560Z,77.47
2023-03-28T07:47:11.825Z,77.50
2023-03-28T07:49:40.989Z,77.49
2023-03-28T07:52:09.440Z,77.34
2023-03-28T07:54:37.451Z,77.29
2023-03-28T07:57:05.957Z,76.64
2023-03-28T07:59:34.778Z,76.87
2023-03-28T08:02:02.986Z,75.24
2023-03-28T08:04:30.992Z,75.88
2023-03-28T08:06:59.450Z,76.24
2023-03-28T08:09:27.447Z,76.21
2023-03-28T08:11:55.270Z,75.69
2023-03-28T08:14:23.528Z,74.96
2023-03-28T08:16:52.040Z,74.61
2023-03-28T08:19:20.005Z,74.24
2023-03-28T08:21:47.982Z,74.11
2023-03-28T08:24:25.277Z,73.45
2023-03-28T08:26:58.179Z,73.34
2023-03-28T08:29:26.379Z,72.86
2023-03-28T08:31:54.540Z,72.01
2023-03-28T08:34:22.433Z,72.02
2023-03-28T08:36:50.446Z,71.59
2023-03-28T08:39:18.477Z,71.41
2023-03-28T08:42:07.454Z,71.16
2023-03-28T08:44:50.560Z,70.12
2023-03-28T08:47:27.571Z,70.26
2023-03-28T08:50:12.938Z,69.69
2023-03-28T08:52:42.354Z,69.48
2023-03-28T08:55:25.876Z,69.63
2023-03-28T08:57:55.614Z,69.47
2023-03-28T09:00:25.863Z,69.20
2023-03-28T09:02:53.890Z,69.45
2023-03-28T09:06:08.912Z,69.38
2023-03-28T09:08:45.543Z,68.24
2023-03-28T09:11:39.399Z,68.75
2023-03-28T09:14:28.989Z,68.21
2023-03-28T09:17:10.913Z,68.68
2023-03-28T09:19:56.905Z,68.42
2023-03-28T09:22:54.700Z,68.20
2023-03-28T09:25:41.042Z,68.69
2023-03-28T09:28:30.292Z,68.81
2023-03-28T09:31:00.468Z,68.87
2023-03-28T09:33:41.978Z,68.51
2023-03-28T09:36:37.783Z,67.93
2023-03-28T09:39:28.972Z,67.77
2023-03-28T09:42:28.617Z,67.90
2023-03-28T09:45:06.465Z,67.58
2023-03-28T09:47:34.888Z,67.49
2023-03-28T09:50:12.423Z,67.67
2023-03-28T09:52:41.766Z,67.04
2023-03-28T09:55:23.207Z,66.51
2023-03-28T09:58:02.468Z,67.06
2023-03-28T10:00:31.029Z,66.75
2023-03-28T10:02:59.088Z,67.07
2023-03-28T10:05:41.443Z,66.81
2023-03-28T10:08:36.355Z,66.13
2023-03-28T10:11:08.215Z,63.41
2023-03-28T10:13:42.309Z,63.48
2023-03-28T10:16:13.273Z,63.70
2023-03-28T10:18:43.862Z,62.58
2023-03-28T10:21:16.170Z,63.03
2023-03-28T10:23:50.017Z,62.93
2023-03-28T10:26:25.788Z,63.02
2023-03-28T10:28:56.022Z,62.21
2023-03-28T10:31:30.675Z,62.18
2023-03-28T10:34:01.072Z,62.36
2023-03-28T10:36:45.092Z,61.70
2023-03-28T10:39:28.002Z,61.43
2023-03-28T10:41:59.569Z,61.49
2023-03-28T10:44:32.919Z,60.31
2023-03-28T10:47:05.194Z,59.82
2023-03-28T10:49:43.934Z,59.22
2023-03-28T10:52:29.820Z,56.24
2023-03-28T10:55:21.973Z,54.02
2023-03-28T10:58:12.763Z,54.18
2023-03-28T11:00:55.439Z,54.81
2023-03-28T11:03:44.639Z,54.73
2023-03-28T11:06:35.847Z,54.65
2023-03-28T11:09:36.763Z,52.48
2023-03-28T11:15:12.252Z,51.25
2023-03-28T11:18:18.565Z,52.30
2023-03-28T11:20:52.296Z,52.88
2023-03-28T11:23:47.596Z,52.61
2023-03-28T11:26:24.495Z,51.83
2023-03-28T11:29:08.470Z,51.68
2023-03-28T11:31:42.555Z,51.27
2023-03-28T11:34:34.211Z,51.90
2023-03-28T11:37:18.870Z,51.13
2023-03-28T11:39:49.575Z,51.66
2023-03-28T11:42:25.750Z,51.10
2023-03-28T11:45:02.475Z,50.73
2023-03-28T11:47:38.691Z,51.10
2023-03-28T11:50:16.693Z,50.78
2023-03-28T11:53:01.625Z,50.65
2023-03-28T11:55:36.032Z,49.96
2023-03-28T11:58:12.742Z,49.70
2023-03-28T12:01:04.791Z,49.73
2023-03-28T12:04:01.527Z,50.29
2023-03-28T12:06:55.894Z,50.17
2023-03-28T12:09:52.279Z,49.99
2023-03-28T12:12:34.504Z,50.38
2023-03-28T12:15:22.764Z,49.50
2023-03-28T12:17:56.020Z,48.68
2023-03-28T12:20:41.916Z,49.07
2023-03-28T12:23:23.654Z,49.08
2023-03-28T12:25:59.064Z,48.42
2023-03-28T12:28:44.909Z,49.01
2023-03-28T12:31:20.078Z,48.26
2023-03-28T12:34:00.990Z,48.90
2023-03-28T12:36:37.872Z,48.81
2023-03-28T12:39:25.906Z,48.81
2023-03-28T12:41:55.214Z,48.57
2023-03-28T12:44:30.240Z,48.87
2023-03-28T12:47:10.582Z,48.87
2023-03-28T12:49:53.928Z,49.15
2023-03-28T12:52:43.454Z,49.48
2023-03-28T12:55:27.064Z,48.71
2023-03-28T12:58:12.598Z,48.45
2023-03-28T13:00:59.039Z,49.39
2023-03-28T13:03:28.393Z,49.05
2023-03-28T13:06:21.632Z,49.69
2023-03-28T13:09:16.235Z,49.14
2023-03-28T13:12:07.448Z,49.11
2023-03-28T13:14:43.372Z,49.49
2023-03-28T13:17:19.345Z,49.15
2023-03-28T13:20:27.123Z,48.80
2023-03-28T13:23:06.065Z,49.27
2023-03-28T13:25:38.946Z,48.69
2023-03-28T13:28:13.053Z,48.69
2023-03-28T13:30:44.796Z,47.78
2023-03-28T13:33:30.936Z,48.59
2023-03-28T13:35:58.915Z,48.53
2023-03-28T13:38:29.809Z,48.84
2023-03-28T13:41:10.490Z,48.70
2023-03-28T13:43:43.312Z,47.13
2023-03-28T13:46:30.025Z,47.66
2023-03-28T13:49:04.248Z,48.00
2023-03-28T13:51:39.265Z,48.44
2023-03-28T13:54:07.451Z,47.67
2023-03-28T13:56:37.284Z,48.21
2023-03-28T13:59:09.277Z,48.39
2023-03-28T14:01:46.145Z,48.42
2023-03-28T14:04:24.373Z,48.27
2023-03-28T14:06:54.172Z,48.14
2023-03-28T14:09:31.854Z,48.07
2023-03-28T14:12:09.800Z,47.91
2023-03-28T14:14:47.371Z,47.88
2023-03-28T14:17:19.604Z,47.96
2023-03-28T14:19:52.467Z,48.21
2023-03-28T14:22:25.349Z,48.25
2023-03-28T14:24:55.529Z,48.15
2023-03-28T14:27:51.857Z,48.28
2023-03-28T14:30:22.854Z,48.00
2023-03-28T14:33:02.457Z,48.43
2023-03-28T14:35:35.707Z,48.64
2023-03-28T14:38:08.625Z,48.48
2023-03-28T14:40:39.471Z,48.34
2023-03-28T14:43:22.662Z,48.24
2023-03-28T14:45:55.392Z,48.13
2023-03-28T14:48:28.459Z,48.16
2023-03-28T14:50:57.402Z,48.03
2023-03-28T14:53:29.104Z,48.28
2023-03-28T14:56:03.410Z,48.45
2023-03-28T14:58:32.891Z,47.51
2023-03-28T15:01:03.223Z,48.44
2023-03-28T15:03:40.141Z,48.28
2023-03-28T15:06:10.707Z,47.99
2023-03-28T15:08:40.665Z,48.30
2023-03-28T15:11:24.905Z,48.14
2023-03-28T15:13:59.997Z,47.98
2023-03-28T15:16:29.340Z,47.58
2023-03-28T15:19:08.338Z,47.37
2023-03-28T15:21:38.637Z,46.63
2023-03-28T15:24:11.363Z,46.28
2023-03-28T15:26:45.046Z,46.16
2023-03-28T15:29:18.511Z,45.45
2023-03-28T15:31:47.333Z,45.40
2023-03-28T15:34:24.942Z,45.94
2023-03-28T15:36:59.908Z,46.05
2023-03-28T15:39:36.111Z,45.38
2023-03-28T15:42:22.632Z,45.51
2023-03-28T15:44:59.642Z,44.91
2023-03-28T15:47:31.500Z,44.61
2023-03-28T15:50:06.080Z,44.79
2023-03-28T15:52:35.573Z,44.29
2023-03-28T15:55:07.146Z,44.83
2023-03-28T15:57:35.502Z,44.37
2023-03-28T16:00:03.414Z,44.06
2023-03-28T16:02:34.093Z,44.45
2023-03-28T16:05:11.492Z,43.98
2023-03-28T16:07:45.465Z,43.99
2023-03-28T16:10:17.560Z,43.23
2023-03-28T16:12:46.531Z,43.45
2023-03-28T16:15:15.612Z,43.45
2023-03-28T16:17:44.612Z,43.44
2023-03-28T16:20:23.862Z,43.17
2023-03-28T16:22:51.981Z,42.39
2023-03-28T16:25:19.946Z,42.65
2023-03-28T16:27:47.894Z,42.39
2023-03-28T16:30:21.000Z,42.21
2023-03-28T16:32:49.044Z,41.78
2023-03-28T16:35:17.103Z,41.81
2023-03-28T16:37:45.104Z,41.15
2023-03-28T16:40:13.378Z,41.39
2023-03-28T16:42:41.244Z,41.38
2023-03-28T16:45:13.058Z,41.48
2023-03-28T16:47:41.691Z,41.55
2023-03-28T16:50:10.939Z,41.77
2023-03-28T16:52:40.291Z,42.08
2023-03-28T16:55:12.695Z,42.42
2023-03-28T16:57:40.838Z,42.56
2023-03-28T17:00:13.206Z,42.70
2023-03-28T17:02:41.261Z,42.87
2023-03-28T17:05:09.633Z,43.18
2023-03-28T17:07:38.243Z,43.60
2023-03-28T17:10:06.849Z,43.98
2023-03-28T17:12:35.502Z,44.34
2023-03-28T17:15:03.528Z,44.62
2023-03-28T17:17:31.603Z,44.88
2023-03-28T17:19:59.553Z,45.12
2023-03-28T17:22:27.780Z,45.22
2023-03-28T17:24:58.265Z,45.07
2023-03-28T17:27:26.139Z,45.17
2023-03-28T17:29:54.111Z,45.27
2023-03-28T17:32:22.250Z,45.47
2023-03-28T17:34:50.229Z,45.59
2023-03-28T17:37:18.315Z,45.85
2023-03-28T17:39:47.910Z,46.16
2023-03-28T17:42:15.866Z,46.37
2023-03-28T17:44:43.870Z,46.71
2023-03-28T17:47:11.868Z,46.86
2023-03-28T17:49:39.880Z,46.66
2023-03-28T17:52:08.186Z,46.71
2023-03-28T17:54:36.093Z,46.77
2023-03-28T17:57:04.847Z,46.90
2023-03-28T17:59:32.999Z,46.77
2023-03-28T18:02:01.126Z,46.71
2023-03-28T18:04:29.160Z,46.94
2023-03-28T18:06:57.110Z,47.20
2023-03-28T18:09:25.051Z,47.67
2023-03-28T18:11:53.607Z,47.50
2023-03-28T18:14:21.500Z,47.47
2023-03-28T18:16:49.838Z,47.63
2023-03-28T18:19:19.842Z,47.87
2023-03-28T18:21:48.023Z,48.13
2023-03-28T18:24:16.363Z,48.33
2023-03-28T18:26:44.301Z,48.40
2023-03-28T18:29:12.808Z,48.48
2023-03-28T18:31:41.776Z,48.51
2023-03-28T18:34:09.680Z,48.61
2023-03-28T18:36:38.998Z,48.50
2023-03-28T18:39:07.485Z,48.69
2023-03-28T18:41:35.777Z,48.64
2023-03-28T18:44:04.834Z,48.92
2023-03-28T18:46:32.984Z,48.90
2023-03-28T18:49:02.127Z,48.63
2023-03-28T18:51:30.335Z,48.50
2023-03-28T18:53:58.570Z,48.51
2023-03-28T18:56:26.498Z,48.68
2023-03-28T18:58:54.821Z,49.05
2023-03-28T19:01:24.451Z,49.01
2023-03-28T19:03:53.468Z,48.95
2023-03-28T19:06:21.582Z,48.83
2023-03-28T19:08:49.902Z,49.13
2023-03-28T19:11:20.333Z,49.25
2023-03-28T19:13:48.397Z,49.69
2023-03-28T19:16:20.299Z,50.10
2023-03-28T19:18:48.632Z,50.47
2023-03-28T19:21:18.155Z,50.55
2023-03-28T19:23:48.318Z,50.29
2023-03-28T19:26:17.270Z,49.81
2023-03-28T19:28:45.153Z,49.79
2023-03-28T19:31:14.694Z,49.77
2023-03-28T19:33:43.267Z,49.87
2023-03-28T19:36:12.690Z,49.80
2023-03-28T19:38:41.441Z,49.44
2023-03-28T19:41:17.228Z,49.96
2023-03-28T19:43:46.019Z,50.53
2023-03-28T19:46:19.844Z,50.85
2023-03-28T19:48:48.111Z,50.93
2023-03-28T19:51:16.772Z,50.79
2023-03-28T19:53:44.661Z,51.32
2023-03-28T19:56:13.393Z,51.56
2023-03-28T19:58:42.203Z,51.73
2023-03-28T20:01:10.203Z,52.12
2023-03-28T20:03:38.153Z,52.14
2023-03-28T20:06:08.838Z,52.00
2023-03-28T20:08:36.911Z,52.01
2023-03-28T20:11:08.558Z,51.84
2023-03-28T20:13:36.865Z,51.85
2023-03-28T20:16:07.431Z,52.12
2023-03-28T20:18:35.927Z,52.28
2023-03-28T20:21:06.602Z,52.13
2023-03-28T20:23:34.948Z,52.26
2023-03-28T20:26:16.327Z,52.43
2023-03-28T20:28:44.376Z,53.18
2023-03-28T20:31:14.047Z,53.18
2023-03-28T20:33:42.373Z,53.41
2023-03-28T20:36:10.506Z,53.63
2023-03-28T20:38:38.529Z,53.80
2023-03-28T20:41:14.482Z,53.46
2023-03-28T20:43:48.173Z,53.65
2023-03-28T20:46:21.303Z,54.21
2023-03-28T20:48:53.661Z,54.88
2023-03-28T20:51:23.720Z,55.29
2023-03-28T20:53:55.738Z,55.00
2023-03-28T20:56:24.023Z,55.01
2023-03-28T20:58:52.038Z,55.16
2023-03-28T21:01:27.551Z,55.49
2023-03-28T21:03:59.251Z,55.23
2023-03-28T21:06:39.399Z,55.26
2023-03-28T21:09:09.555Z,56.12
2023-03-28T21:11:39.710Z,56.06
2023-03-28T21:14:09.110Z,56.13
2023-03-28T21:16:38.698Z,56.02
2023-03-28T21:19:07.074Z,55.98
2023-03-28T21:21:35.309Z,55.86
2023-03-28T21:24:04.846Z,56.81
2023-03-28T21:26:32.881Z,57.16
2023-03-28T21:29:00.883Z,57.04
2023-03-28T21:31:32.512Z,57.15
2023-03-28T21:34:01.060Z,57.28
2023-03-28T21:36:29.557Z,57.12
2023-03-28T21:38:57.988Z,57.44
2023-03-28T21:41:28.431Z,57.37
2023-03-28T21:43:56.460Z,57.04
2023-03-28T21:46:24.697Z,56.87
2023-03-28T21:48:52.731Z,56.93
2023-03-28T21:51:20.878Z,57.04
2023-03-28T21:53:48.854Z,57.11
2023-03-28T21:56:17.969Z,57.44
2023-03-28T21:58:46.238Z,57.42
2023-03-28T22:01:15.938Z,57.80
2023-03-28T22:03:44.030Z,57.87
2023-03-28T22:06:12.168Z,58.04
2023-03-28T22:08:41.147Z,57.91
2023-03-28T22:11:20.349Z,57.95
2023-03-28T22:13:51.088Z,57.92
2023-03-28T22:16:19.040Z,57.87
2023-03-28T22:18:50.845Z,58.08
2023-03-28T22:21:19.265Z,57.58
2023-03-28T22:23:48.680Z,57.54
2023-03-28T22:26:17.749Z,57.35
2023-03-28T22:28:46.122Z,57.10
2023-03-28T22:31:15.108Z,57.22
2023-03-28T22:33:43.292Z,56.58
2023-03-28T22:36:12.089Z,56.74
2023-03-28T22:38:40.007Z,57.15
2023-03-28T22:41:08.957Z,57.24
2023-03-28T22:43:37.649Z,57.41
2023-03-28T22:46:07.026Z,57.65
2023-03-28T22:48:34.958Z,58.05
2023-03-28T22:51:03.142Z,58.08
2023-03-28T22:53:31.266Z,58.20
2023-03-28T22:56:00.045Z,59.85
2023-03-28T22:58:28.608Z,59.68
2023-03-28T23:00:56.781Z,60.31
2023-03-28T23:03:25.211Z,61.49
2023-03-28T23:05:53.148Z,62.18
2023-03-28T23:08:21.536Z,63.12
2023-03-28T23:10:49.643Z,63.86
2023-03-28T23:13:17.793Z,64.50
2023-03-28T23:15:46.175Z,65.31
2023-03-28T23:18:15.903Z,65.19
2023-03-28T23:20:44.941Z,65.43
2023-03-28T23:23:14.090Z,65.79
2023-03-28T23:25:42.100Z,65.67
2023-03-28T23:28:10.050Z,65.33
2023-03-28T23:30:40.096Z,65.49
2023-03-28T23:33:08.598Z,65.28
2023-03-28T23:35:36.818Z,65.25
2023-03-28T23:38:04.968Z,65.56
2023-03-28T23:40:33.563Z,65.81
2023-03-28T23:43:01.617Z,66.48
2023-03-28T23:45:29.638Z,66.23
2023-03-28T23:47:57.766Z,66.36
2023-03-28T23:50:25.757Z,66.71
2023-03-28T23:52:53.965Z,66.98
2023-03-28T23:55:22.117Z,67.37
2023-03-28T23:57:50.081Z,67.48
